sensor_id;sensor_type;location;lat;lon;timestamp;P1;durP1;ratioP1;P2;durP2;ratioP2
1839;SDS011;920;48.944;9.148;2024-01-07T00:01:02;11.23;;;9.20;;
1839;SDS011;920;48.944;9.148;2024-01-07T00:03:29;9.87;;;8.20;;
1839;SDS011;920;48.944;9.148;2024-01-07T00:05:55;12.30;;;9.70;;
1839;SDS011;920;48.944;9.148;2024-01-07T00:08:23;12.70;;;9.73;;
1839;SDS011;920;48.944;9.148;2024-01-07T00:10:50;11.10;;;8.90;;
1839;SDS011;920;48.944;9.148;2024-01-07T00:13:17;10.83;;;8.80;;
1839;SDS011;920;48.944;9.148;2024-01-07T00:15:44;10.33;;;8.73;;
1839;SDS011;920;48.944;9.148;2024-01-07T00:18:10;10.73;;;9.13;;
1839;SDS011;920;48.944;9.148;2024-01-07T00:20:37;11.50;;;9.53;;
1839;SDS011;920;48.944;9.148;2024-01-07T00:23:04;11.60;;;9.20;;
1839;SDS011;920;48.944;9.148;2024-01-07T00:25:32;11.60;;;9.57;;
1839;SDS011;920;48.944;9.148;2024-01-07T00:27:59;11.43;;;9.60;;
1839;SDS011;920;48.944;9.148;2024-01-07T00:30:26;12.50;;;9.90;;
1839;SDS011;920;48.944;9.148;2024-01-07T00:32:54;11.20;;;9.30;;
1839;SDS011;920;48.944;9.148;2024-01-07T00:35:21;11.43;;;9.07;;
1839;SDS011;920;48.944;9.148;2024-01-07T00:37:48;12.47;;;9.23;;
1839;SDS011;920;48.944;9.148;2024-01-07T00:40:15;13.20;;;10.07;;
1839;SDS011;920;48.944;9.148;2024-01-07T00:42:43;12.07;;;10.10;;
1839;SDS011;920;48.944;9.148;2024-01-07T00:45:10;10.17;;;8.57;;
1839;SDS011;920;48.944;9.148;2024-01-07T00:47:37;11.43;;;9.33;;
1839;SDS011;920;48.944;9.148;2024-01-07T00:50:04;11.30;;;9.40;;
1839;SDS011;920;48.944;9.148;2024-01-07T00:52:31;11.37;;;9.47;;
1839;SDS011;920;48.944;9.148;2024-01-07T00:54:58;10.70;;;9.10;;
1839;SDS011;920;48.944;9.148;2024-01-07T00:57:25;11.93;;;9.17;;
1839;SDS011;920;48.944;9.148;2024-01-07T00:59:53;11.43;;;8.33;;
1839;SDS011;920;48.944;9.148;2024-01-07T01:02:20;12.80;;;10.50;;
1839;SDS011;920;48.944;9.148;2024-01-07T01:04:48;13.93;;;10.80;;
1839;SDS011;920;48.944;9.148;2024-01-07T01:07:15;15.20;;;11.00;;
1839;SDS011;920;48.944;9.148;2024-01-07T01:09:41;14.63;;;11.13;;
1839;SDS011;920;48.944;9.148;2024-01-07T01:12:08;15.13;;;11.37;;
1839;SDS011;920;48.944;9.148;2024-01-07T01:14:35;17.70;;;11.07;;
1839;SDS011;920;48.944;9.148;2024-01-07T01:17:03;16.43;;;10.83;;
1839;SDS011;920;48.944;9.148;2024-01-07T01:19:31;15.20;;;12.17;;
1839;SDS011;920;48.944;9.148;2024-01-07T01:21:58;15.53;;;11.50;;
1839;SDS011;920;48.944;9.148;2024-01-07T01:24:24;13.20;;;10.70;;
1839;SDS011;920;48.944;9.148;2024-01-07T01:26:51;13.60;;;10.37;;
1839;SDS011;920;48.944;9.148;2024-01-07T01:29:18;14.77;;;11.60;;
1839;SDS011;920;48.944;9.148;2024-01-07T01:31:45;14.00;;;10.97;;
1839;SDS011;920;48.944;9.148;2024-01-07T01:34:13;14.53;;;11.30;;
1839;SDS011;920;48.944;9.148;2024-01-07T01:36:40;13.80;;;10.50;;
1839;SDS011;920;48.944;9.148;2024-01-07T01:39:07;14.23;;;11.10;;
1839;SDS011;920;48.944;9.148;2024-01-07T01:41:34;14.37;;;10.90;;
1839;SDS011;920;48.944;9.148;2024-01-07T01:44:01;13.00;;;10.60;;
1839;SDS011;920;48.944;9.148;2024-01-07T01:46:28;12.90;;;10.50;;
1839;SDS011;920;48.944;9.148;2024-01-07T01:48:55;12.77;;;9.77;;
1839;SDS011;920;48.944;9.148;2024-01-07T01:51:23;12.77;;;9.97;;
1839;SDS011;920;48.944;9.148;2024-01-07T01:53:51;12.10;;;9.50;;
1839;SDS011;920;48.944;9.148;2024-01-07T01:56:18;12.20;;;10.00;;
1839;SDS011;920;48.944;9.148;2024-01-07T01:58:46;12.20;;;9.47;;
1839;SDS011;920;48.944;9.148;2024-01-07T02:01:13;10.90;;;8.50;;
1839;SDS011;920;48.944;9.148;2024-01-07T02:03:40;11.70;;;9.27;;
1839;SDS011;920;48.944;9.148;2024-01-07T02:06:08;15.17;;;9.07;;
1839;SDS011;920;48.944;9.148;2024-01-07T02:08:37;11.00;;;8.47;;
1839;SDS011;920;48.944;9.148;2024-01-07T02:13:46;10.17;;;7.80;;
1839;SDS011;920;48.944;9.148;2024-01-07T02:16:13;10.50;;;8.87;;
1839;SDS011;920;48.944;9.148;2024-01-07T02:18:41;11.63;;;8.87;;
1839;SDS011;920;48.944;9.148;2024-01-07T02:21:09;10.40;;;7.87;;
1839;SDS011;920;48.944;9.148;2024-01-07T02:23:37;13.17;;;9.17;;
1839;SDS011;920;48.944;9.148;2024-01-07T02:26:05;12.37;;;9.37;;
1839;SDS011;920;48.944;9.148;2024-01-07T02:28:32;12.67;;;9.13;;
1839;SDS011;920;48.944;9.148;2024-01-07T02:30:59;12.20;;;8.40;;
1839;SDS011;920;48.944;9.148;2024-01-07T02:33:26;14.27;;;10.03;;
1839;SDS011;920;48.944;9.148;2024-01-07T02:35:54;12.13;;;9.33;;
1839;SDS011;920;48.944;9.148;2024-01-07T02:38:22;11.00;;;8.73;;
1839;SDS011;920;48.944;9.148;2024-01-07T02:40:49;14.83;;;9.10;;
1839;SDS011;920;48.944;9.148;2024-01-07T02:43:17;13.17;;;8.90;;
1839;SDS011;920;48.944;9.148;2024-01-07T02:45:44;14.60;;;10.70;;
1839;SDS011;920;48.944;9.148;2024-01-07T02:48:10;12.63;;;9.47;;
1839;SDS011;920;48.944;9.148;2024-01-07T02:50:37;13.20;;;9.87;;
1839;SDS011;920;48.944;9.148;2024-01-07T02:53:04;13.40;;;10.03;;
1839;SDS011;920;48.944;9.148;2024-01-07T02:55:33;12.60;;;9.73;;
1839;SDS011;920;48.944;9.148;2024-01-07T02:57:59;12.57;;;9.70;;
1839;SDS011;920;48.944;9.148;2024-01-07T03:00:27;13.07;;;9.70;;
1839;SDS011;920;48.944;9.148;2024-01-07T03:02:54;11.20;;;8.90;;
1839;SDS011;920;48.944;9.148;2024-01-07T03:05:21;13.00;;;9.30;;
1839;SDS011;920;48.944;9.148;2024-01-07T03:07:48;12.67;;;9.70;;
1839;SDS011;920;48.944;9.148;2024-01-07T03:10:15;14.17;;;10.83;;
1839;SDS011;920;48.944;9.148;2024-01-07T03:12:41;13.77;;;9.63;;
1839;SDS011;920;48.944;9.148;2024-01-07T03:15:08;12.60;;;9.20;;
1839;SDS011;920;48.944;9.148;2024-01-07T03:17:37;14.37;;;9.70;;
1839;SDS011;920;48.944;9.148;2024-01-07T03:20:04;14.40;;;10.40;;
1839;SDS011;920;48.944;9.148;2024-01-07T03:22:31;15.13;;;11.00;;
1839;SDS011;920;48.944;9.148;2024-01-07T03:24:58;12.93;;;10.27;;
1839;SDS011;920;48.944;9.148;2024-01-07T03:27:24;15.27;;;9.63;;
1839;SDS011;920;48.944;9.148;2024-01-07T03:29:51;15.30;;;10.97;;
1839;SDS011;920;48.944;9.148;2024-01-07T03:32:18;13.17;;;9.67;;
1839;SDS011;920;48.944;9.148;2024-01-07T03:34:46;14.43;;;10.17;;
1839;SDS011;920;48.944;9.148;2024-01-07T03:37:13;13.80;;;10.80;;
1839;SDS011;920;48.944;9.148;2024-01-07T03:39:39;13.60;;;10.00;;
1839;SDS011;920;48.944;9.148;2024-01-07T03:42:06;14.67;;;10.57;;
1839;SDS011;920;48.944;9.148;2024-01-07T03:44:36;11.67;;;8.43;;
1839;SDS011;920;48.944;9.148;2024-01-07T03:47:03;13.43;;;9.97;;
1839;SDS011;920;48.944;9.148;2024-01-07T03:49:30;13.00;;;9.73;;
1839;SDS011;920;48.944;9.148;2024-01-07T03:51:58;14.20;;;10.83;;
1839;SDS011;920;48.944;9.148;2024-01-07T03:54:25;11.90;;;9.53;;
1839;SDS011;920;48.944;9.148;2024-01-07T03:56:52;12.13;;;9.10;;
1839;SDS011;920;48.944;9.148;2024-01-07T03:59:19;14.13;;;9.93;;
1839;SDS011;920;48.944;9.148;2024-01-07T04:01:47;13.27;;;9.53;;
1839;SDS011;920;48.944;9.148;2024-01-07T04:04:14;13.20;;;9.77;;
1839;SDS011;920;48.944;9.148;2024-01-07T04:06:41;12.70;;;9.00;;
1839;SDS011;920;48.944;9.148;2024-01-07T04:09:09;14.20;;;9.77;;
1839;SDS011;920;48.944;9.148;2024-01-07T04:11:38;15.17;;;9.73;;
1839;SDS011;920;48.944;9.148;2024-01-07T04:14:05;14.00;;;10.37;;
1839;SDS011;920;48.944;9.148;2024-01-07T04:16:32;12.00;;;8.97;;
1839;SDS011;920;48.944;9.148;2024-01-07T04:18:59;12.00;;;9.43;;
1839;SDS011;920;48.944;9.148;2024-01-07T04:21:26;12.87;;;9.00;;
1839;SDS011;920;48.944;9.148;2024-01-07T04:23:52;13.07;;;9.03;;
1839;SDS011;920;48.944;9.148;2024-01-07T04:26:21;14.40;;;9.57;;
1839;SDS011;920;48.944;9.148;2024-01-07T04:28:47;12.00;;;8.90;;
1839;SDS011;920;48.944;9.148;2024-01-07T04:31:14;11.70;;;8.13;;
1839;SDS011;920;48.944;9.148;2024-01-07T04:33:41;12.10;;;8.63;;
1839;SDS011;920;48.944;9.148;2024-01-07T04:36:08;10.30;;;7.90;;
1839;SDS011;920;48.944;9.148;2024-01-07T04:38:34;11.53;;;8.13;;
1839;SDS011;920;48.944;9.148;2024-01-07T04:41:01;11.13;;;8.40;;
1839;SDS011;920;48.944;9.148;2024-01-07T04:43:30;11.50;;;8.40;;
1839;SDS011;920;48.944;9.148;2024-01-07T04:45:56;12.30;;;8.90;;
1839;SDS011;920;48.944;9.148;2024-01-07T04:48:23;14.20;;;9.60;;
1839;SDS011;920;48.944;9.148;2024-01-07T04:50:50;13.37;;;9.20;;
1839;SDS011;920;48.944;9.148;2024-01-07T04:53:17;12.70;;;8.90;;
1839;SDS011;920;48.944;9.148;2024-01-07T04:55:43;11.23;;;8.13;;
1839;SDS011;920;48.944;9.148;2024-01-07T04:58:09;14.37;;;10.27;;
1839;SDS011;920;48.944;9.148;2024-01-07T05:00:38;11.73;;;8.10;;
1839;SDS011;920;48.944;9.148;2024-01-07T05:03:04;11.63;;;8.07;;
1839;SDS011;920;48.944;9.148;2024-01-07T05:05:31;11.40;;;8.27;;
1839;SDS011;920;48.944;9.148;2024-01-07T05:07:58;12.40;;;9.27;;
1839;SDS011;920;48.944;9.148;2024-01-07T05:10:25;11.70;;;8.53;;
1839;SDS011;920;48.944;9.148;2024-01-07T05:12:52;12.53;;;9.30;;
1839;SDS011;920;48.944;9.148;2024-01-07T05:15:19;11.77;;;8.67;;
1839;SDS011;920;48.944;9.148;2024-01-07T05:17:47;12.90;;;8.70;;
1839;SDS011;920;48.944;9.148;2024-01-07T05:20:14;11.30;;;8.27;;
1839;SDS011;920;48.944;9.148;2024-01-07T05:22:41;11.70;;;8.73;;
1839;SDS011;920;48.944;9.148;2024-01-07T05:25:08;11.07;;;7.30;;
1839;SDS011;920;48.944;9.148;2024-01-07T05:27:35;11.50;;;8.33;;
1839;SDS011;920;48.944;9.148;2024-01-07T05:30:02;10.90;;;7.23;;
1839;SDS011;920;48.944;9.148;2024-01-07T05:32:29;11.23;;;7.67;;
1839;SDS011;920;48.944;9.148;2024-01-07T05:34:57;11.57;;;7.67;;
1839;SDS011;920;48.944;9.148;2024-01-07T05:37:24;10.53;;;8.10;;
1839;SDS011;920;48.944;9.148;2024-01-07T05:39:51;10.50;;;7.90;;
1839;SDS011;920;48.944;9.148;2024-01-07T05:42:17;9.63;;;7.60;;
1839;SDS011;920;48.944;9.148;2024-01-07T05:44:45;9.63;;;6.93;;
1839;SDS011;920;48.944;9.148;2024-01-07T05:47:11;10.87;;;7.20;;
1839;SDS011;920;48.944;9.148;2024-01-07T05:49:38;10.00;;;7.23;;
1839;SDS011;920;48.944;9.148;2024-01-07T05:52:06;9.83;;;7.20;;
1839;SDS011;920;48.944;9.148;2024-01-07T05:54:33;9.50;;;7.47;;
1839;SDS011;920;48.944;9.148;2024-01-07T05:57:00;8.80;;;6.87;;
1839;SDS011;920;48.944;9.148;2024-01-07T05:59:26;10.10;;;7.20;;
1839;SDS011;920;48.944;9.148;2024-01-07T06:01:57;9.53;;;6.87;;
1839;SDS011;920;48.944;9.148;2024-01-07T06:04:24;10.03;;;7.93;;
1839;SDS011;920;48.944;9.148;2024-01-07T06:06:51;10.53;;;7.27;;
1839;SDS011;920;48.944;9.148;2024-01-07T06:09:19;8.70;;;7.20;;
1839;SDS011;920;48.944;9.148;2024-01-07T06:11:46;9.97;;;6.90;;
1839;SDS011;920;48.944;9.148;2024-01-07T06:14:12;8.70;;;6.93;;
1839;SDS011;920;48.944;9.148;2024-01-07T06:16:40;9.37;;;7.27;;
1839;SDS011;920;48.944;9.148;2024-01-07T06:19:07;9.47;;;7.43;;
1839;SDS011;920;48.944;9.148;2024-01-07T06:21:34;9.70;;;7.40;;
1839;SDS011;920;48.944;9.148;2024-01-07T06:24:01;9.40;;;6.90;;
1839;SDS011;920;48.944;9.148;2024-01-07T06:26:29;11.50;;;7.63;;
1839;SDS011;920;48.944;9.148;2024-01-07T06:28:56;10.40;;;8.20;;
1839;SDS011;920;48.944;9.148;2024-01-07T06:31:23;10.67;;;7.63;;
1839;SDS011;920;48.944;9.148;2024-01-07T06:33:50;9.10;;;7.30;;
1839;SDS011;920;48.944;9.148;2024-01-07T06:36:17;9.37;;;7.47;;
1839;SDS011;920;48.944;9.148;2024-01-07T06:38:43;8.90;;;6.90;;
1839;SDS011;920;48.944;9.148;2024-01-07T06:41:11;10.63;;;7.77;;
1839;SDS011;920;48.944;9.148;2024-01-07T06:43:39;10.60;;;7.77;;
1839;SDS011;920;48.944;9.148;2024-01-07T06:46:06;8.90;;;7.30;;
1839;SDS011;920;48.944;9.148;2024-01-07T06:48:33;9.07;;;7.33;;
1839;SDS011;920;48.944;9.148;2024-01-07T06:50:59;13.00;;;8.97;;
1839;SDS011;920;48.944;9.148;2024-01-07T06:53:26;10.20;;;7.90;;
1839;SDS011;920;48.944;9.148;2024-01-07T06:55:53;11.63;;;8.70;;
1839;SDS011;920;48.944;9.148;2024-01-07T06:58:20;8.97;;;7.53;;
1839;SDS011;920;48.944;9.148;2024-01-07T07:00:48;10.67;;;7.93;;
1839;SDS011;920;48.944;9.148;2024-01-07T07:03:16;9.17;;;7.40;;
1839;SDS011;920;48.944;9.148;2024-01-07T07:05:42;9.43;;;7.07;;
1839;SDS011;920;48.944;9.148;2024-01-07T07:08:09;8.53;;;7.07;;
1839;SDS011;920;48.944;9.148;2024-01-07T07:10:36;9.43;;;7.67;;
1839;SDS011;920;48.944;9.148;2024-01-07T07:13:03;10.57;;;8.07;;
1839;SDS011;920;48.944;9.148;2024-01-07T07:15:30;9.83;;;7.07;;
1839;SDS011;920;48.944;9.148;2024-01-07T07:17:58;8.40;;;6.53;;
1839;SDS011;920;48.944;9.148;2024-01-07T07:20:25;8.10;;;6.53;;
1839;SDS011;920;48.944;9.148;2024-01-07T07:22:52;8.73;;;6.80;;
1839;SDS011;920;48.944;9.148;2024-01-07T07:25:18;8.03;;;6.80;;
1839;SDS011;920;48.944;9.148;2024-01-07T07:27:45;8.90;;;6.40;;
1839;SDS011;920;48.944;9.148;2024-01-07T07:30:12;9.40;;;7.70;;
1839;SDS011;920;48.944;9.148;2024-01-07T07:32:39;8.53;;;6.10;;
1839;SDS011;920;48.944;9.148;2024-01-07T07:35:08;7.37;;;5.90;;
1839;SDS011;920;48.944;9.148;2024-01-07T07:37:35;7.43;;;5.97;;
1839;SDS011;920;48.944;9.148;2024-01-07T07:40:03;9.00;;;6.37;;
1839;SDS011;920;48.944;9.148;2024-01-07T07:42:31;8.10;;;6.30;;
1839;SDS011;920;48.944;9.148;2024-01-07T07:44:57;8.53;;;6.57;;
1839;SDS011;920;48.944;9.148;2024-01-07T07:47:24;8.50;;;6.60;;
1839;SDS011;920;48.944;9.148;2024-01-07T07:49:51;8.47;;;5.50;;
1839;SDS011;920;48.944;9.148;2024-01-07T07:52:19;8.17;;;6.27;;
1839;SDS011;920;48.944;9.148;2024-01-07T07:54:48;7.20;;;5.60;;
1839;SDS011;920;48.944;9.148;2024-01-07T07:57:15;8.10;;;6.40;;
1839;SDS011;920;48.944;9.148;2024-01-07T07:59:42;8.47;;;5.97;;
1839;SDS011;920;48.944;9.148;2024-01-07T08:02:09;6.20;;;5.17;;
1839;SDS011;920;48.944;9.148;2024-01-07T08:04:36;8.50;;;5.63;;
1839;SDS011;920;48.944;9.148;2024-01-07T08:07:03;7.00;;;5.53;;
1839;SDS011;920;48.944;9.148;2024-01-07T08:09:31;7.77;;;5.60;;
1839;SDS011;920;48.944;9.148;2024-01-07T08:11:58;7.17;;;5.10;;
1839;SDS011;920;48.944;9.148;2024-01-07T08:14:25;6.60;;;5.20;;
1839;SDS011;920;48.944;9.148;2024-01-07T08:16:52;7.03;;;5.30;;
1839;SDS011;920;48.944;9.148;2024-01-07T08:19:18;6.93;;;5.10;;
1839;SDS011;920;48.944;9.148;2024-01-07T08:21:45;6.50;;;4.83;;
1839;SDS011;920;48.944;9.148;2024-01-07T08:24:12;6.87;;;5.70;;
1839;SDS011;920;48.944;9.148;2024-01-07T08:26:40;6.33;;;4.53;;
1839;SDS011;920;48.944;9.148;2024-01-07T08:29:07;6.30;;;4.67;;
1839;SDS011;920;48.944;9.148;2024-01-07T08:31:34;6.37;;;4.77;;
1839;SDS011;920;48.944;9.148;2024-01-07T08:34:00;7.33;;;5.40;;
1839;SDS011;920;48.944;9.148;2024-01-07T08:36:27;6.80;;;5.10;;
1839;SDS011;920;48.944;9.148;2024-01-07T08:38:54;6.00;;;4.37;;
1839;SDS011;920;48.944;9.148;2024-01-07T08:41:21;5.07;;;3.70;;
1839;SDS011;920;48.944;9.148;2024-01-07T08:43:49;7.70;;;5.03;;
1839;SDS011;920;48.944;9.148;2024-01-07T08:46:16;6.53;;;5.07;;
1839;SDS011;920;48.944;9.148;2024-01-07T08:48:43;7.67;;;5.73;;
1839;SDS011;920;48.944;9.148;2024-01-07T08:51:11;6.40;;;5.17;;
1839;SDS011;920;48.944;9.148;2024-01-07T08:53:37;6.20;;;4.90;;
1839;SDS011;920;48.944;9.148;2024-01-07T08:56:04;5.57;;;4.43;;
1839;SDS011;920;48.944;9.148;2024-01-07T08:58:32;6.53;;;4.47;;
1839;SDS011;920;48.944;9.148;2024-01-07T09:01:00;6.47;;;4.70;;
1839;SDS011;920;48.944;9.148;2024-01-07T09:03:27;7.40;;;5.33;;
1839;SDS011;920;48.944;9.148;2024-01-07T09:05:55;7.13;;;5.20;;
1839;SDS011;920;48.944;9.148;2024-01-07T09:08:22;8.17;;;6.23;;
1839;SDS011;920;48.944;9.148;2024-01-07T09:10:49;8.37;;;6.20;;
1839;SDS011;920;48.944;9.148;2024-01-07T09:13:16;8.07;;;6.20;;
1839;SDS011;920;48.944;9.148;2024-01-07T09:15:43;8.27;;;5.97;;
1839;SDS011;920;48.944;9.148;2024-01-07T09:18:11;7.43;;;5.73;;
1839;SDS011;920;48.944;9.148;2024-01-07T09:20:38;8.90;;;6.70;;
1839;SDS011;920;48.944;9.148;2024-01-07T09:23:06;9.50;;;7.23;;
1839;SDS011;920;48.944;9.148;2024-01-07T09:25:33;9.70;;;6.80;;
1839;SDS011;920;48.944;9.148;2024-01-07T09:28:00;9.07;;;6.80;;
1839;SDS011;920;48.944;9.148;2024-01-07T09:30:27;10.90;;;6.73;;
1839;SDS011;920;48.944;9.148;2024-01-07T09:32:54;9.00;;;6.73;;
1839;SDS011;920;48.944;9.148;2024-01-07T09:35:22;10.10;;;7.80;;
1839;SDS011;920;48.944;9.148;2024-01-07T09:37:48;8.23;;;6.90;;
1839;SDS011;920;48.944;9.148;2024-01-07T09:40:16;9.30;;;6.70;;
1839;SDS011;920;48.944;9.148;2024-01-07T09:42:44;8.07;;;6.67;;
1839;SDS011;920;48.944;9.148;2024-01-07T09:45:12;7.40;;;6.07;;
1839;SDS011;920;48.944;9.148;2024-01-07T09:47:39;8.77;;;6.83;;
1839;SDS011;920;48.944;9.148;2024-01-07T09:50:07;9.63;;;7.53;;
1839;SDS011;920;48.944;9.148;2024-01-07T09:52:36;9.83;;;6.90;;
1839;SDS011;920;48.944;9.148;2024-01-07T09:55:04;9.17;;;7.40;;
1839;SDS011;920;48.944;9.148;2024-01-07T09:57:34;8.83;;;6.97;;
1839;SDS011;920;48.944;9.148;2024-01-07T10:00:01;8.40;;;5.87;;
1839;SDS011;920;48.944;9.148;2024-01-07T10:02:37;6.70;;;5.17;;
1839;SDS011;920;48.944;9.148;2024-01-07T10:05:06;6.27;;;4.77;;
1839;SDS011;920;48.944;9.148;2024-01-07T10:07:33;5.53;;;4.50;;
1839;SDS011;920;48.944;9.148;2024-01-07T10:10:03;5.93;;;4.20;;
1839;SDS011;920;48.944;9.148;2024-01-07T10:12:37;5.73;;;4.07;;
1839;SDS011;920;48.944;9.148;2024-01-07T10:15:04;5.47;;;4.13;;
1839;SDS011;920;48.944;9.148;2024-01-07T10:17:32;6.97;;;4.60;;
1839;SDS011;920;48.944;9.148;2024-01-07T10:19:59;8.30;;;5.97;;
1839;SDS011;920;48.944;9.148;2024-01-07T10:22:26;6.50;;;4.87;;
1839;SDS011;920;48.944;9.148;2024-01-07T10:24:53;5.07;;;4.10;;
1839;SDS011;920;48.944;9.148;2024-01-07T10:27:22;5.50;;;4.30;;
1839;SDS011;920;48.944;9.148;2024-01-07T10:29:49;7.07;;;5.30;;
1839;SDS011;920;48.944;9.148;2024-01-07T10:32:19;6.40;;;4.50;;
1839;SDS011;920;48.944;9.148;2024-01-07T10:34:46;5.73;;;4.00;;
1839;SDS011;920;48.944;9.148;2024-01-07T10:37:13;6.50;;;4.93;;
1839;SDS011;920;48.944;9.148;2024-01-07T10:39:40;5.50;;;4.27;;
1839;SDS011;920;48.944;9.148;2024-01-07T10:42:06;5.63;;;4.40;;
1839;SDS011;920;48.944;9.148;2024-01-07T10:44:35;5.60;;;4.50;;
1839;SDS011;920;48.944;9.148;2024-01-07T10:47:05;5.60;;;4.70;;
1839;SDS011;920;48.944;9.148;2024-01-07T10:49:33;6.43;;;4.97;;
1839;SDS011;920;48.944;9.148;2024-01-07T10:52:03;6.43;;;5.37;;
1839;SDS011;920;48.944;9.148;2024-01-07T10:54:31;6.00;;;4.90;;
1839;SDS011;920;48.944;9.148;2024-01-07T10:56:59;6.13;;;4.80;;
1839;SDS011;920;48.944;9.148;2024-01-07T10:59:26;6.83;;;4.70;;
1839;SDS011;920;48.944;9.148;2024-01-07T11:01:55;6.10;;;4.53;;
1839;SDS011;920;48.944;9.148;2024-01-07T11:04:23;5.63;;;4.40;;
1839;SDS011;920;48.944;9.148;2024-01-07T11:06:55;6.47;;;4.10;;
1839;SDS011;920;48.944;9.148;2024-01-07T11:09:27;5.60;;;4.23;;
1839;SDS011;920;48.944;9.148;2024-01-07T11:11:58;5.30;;;4.23;;
1839;SDS011;920;48.944;9.148;2024-01-07T11:14:35;5.03;;;4.20;;
1839;SDS011;920;48.944;9.148;2024-01-07T11:17:05;5.30;;;4.50;;
1839;SDS011;920;48.944;9.148;2024-01-07T11:19:32;5.50;;;4.57;;
1839;SDS011;920;48.944;9.148;2024-01-07T11:24:57;6.30;;;4.93;;
1839;SDS011;920;48.944;9.148;2024-01-07T11:27:25;5.87;;;4.20;;
1839;SDS011;920;48.944;9.148;2024-01-07T11:29:54;6.70;;;5.03;;
1839;SDS011;920;48.944;9.148;2024-01-07T11:32:23;12.23;;;4.87;;
1839;SDS011;920;48.944;9.148;2024-01-07T11:34:51;6.77;;;5.03;;
1839;SDS011;920;48.944;9.148;2024-01-07T11:37:19;7.03;;;5.57;;
1839;SDS011;920;48.944;9.148;2024-01-07T11:39:46;7.17;;;5.37;;
1839;SDS011;920;48.944;9.148;2024-01-07T11:42:14;6.87;;;4.93;;
1839;SDS011;920;48.944;9.148;2024-01-07T11:44:45;6.80;;;5.13;;
1839;SDS011;920;48.944;9.148;2024-01-07T11:47:12;7.37;;;5.50;;
1839;SDS011;920;48.944;9.148;2024-01-07T11:49:40;7.87;;;5.60;;
1839;SDS011;920;48.944;9.148;2024-01-07T11:52:08;7.00;;;5.50;;
1839;SDS011;920;48.944;9.148;2024-01-07T11:54:37;7.10;;;5.20;;
1839;SDS011;920;48.944;9.148;2024-01-07T11:57:04;7.00;;;5.43;;
1839;SDS011;920;48.944;9.148;2024-01-07T11:59:35;6.20;;;5.20;;
1839;SDS011;920;48.944;9.148;2024-01-07T12:02:02;8.40;;;6.10;;
1839;SDS011;920;48.944;9.148;2024-01-07T12:04:30;6.90;;;5.43;;
1839;SDS011;920;48.944;9.148;2024-01-07T12:06:59;7.70;;;6.10;;
1839;SDS011;920;48.944;9.148;2024-01-07T12:09:26;15.87;;;9.90;;
1839;SDS011;920;48.944;9.148;2024-01-07T12:11:53;9.43;;;7.30;;
1839;SDS011;920;48.944;9.148;2024-01-07T12:14:20;7.67;;;6.20;;
1839;SDS011;920;48.944;9.148;2024-01-07T12:16:46;7.67;;;6.60;;
1839;SDS011;920;48.944;9.148;2024-01-07T12:19:13;9.00;;;6.00;;
1839;SDS011;920;48.944;9.148;2024-01-07T12:21:40;8.90;;;6.50;;
1839;SDS011;920;48.944;9.148;2024-01-07T12:24:09;7.07;;;5.63;;
1839;SDS011;920;48.944;9.148;2024-01-07T12:26:35;8.63;;;6.20;;
1839;SDS011;920;48.944;9.148;2024-01-07T12:29:02;8.07;;;6.37;;
1839;SDS011;920;48.944;9.148;2024-01-07T12:31:30;7.53;;;6.07;;
1839;SDS011;920;48.944;9.148;2024-01-07T12:33:58;9.47;;;7.23;;
1839;SDS011;920;48.944;9.148;2024-01-07T12:36:25;9.40;;;6.53;;
1839;SDS011;920;48.944;9.148;2024-01-07T12:38:52;8.30;;;6.90;;
1839;SDS011;920;48.944;9.148;2024-01-07T12:41:21;7.87;;;6.00;;
1839;SDS011;920;48.944;9.148;2024-01-07T12:43:48;8.83;;;6.73;;
1839;SDS011;920;48.944;9.148;2024-01-07T12:46:15;11.23;;;7.63;;
1839;SDS011;920;48.944;9.148;2024-01-07T12:48:42;8.63;;;6.93;;
1839;SDS011;920;48.944;9.148;2024-01-07T12:51:09;11.67;;;8.33;;
1839;SDS011;920;48.944;9.148;2024-01-07T12:53:36;13.17;;;8.73;;
1839;SDS011;920;48.944;9.148;2024-01-07T12:56:03;10.30;;;8.00;;
1839;SDS011;920;48.944;9.148;2024-01-07T12:58:32;10.23;;;7.70;;
1839;SDS011;920;48.944;9.148;2024-01-07T13:00:59;9.27;;;7.70;;
1839;SDS011;920;48.944;9.148;2024-01-07T13:03:26;9.53;;;7.30;;
1839;SDS011;920;48.944;9.148;2024-01-07T13:05:52;8.80;;;6.97;;
1839;SDS011;920;48.944;9.148;2024-01-07T13:08:19;11.17;;;8.23;;
1839;SDS011;920;48.944;9.148;2024-01-07T13:10:47;10.10;;;7.90;;
1839;SDS011;920;48.944;9.148;2024-01-07T13:13:14;9.70;;;7.60;;
1839;SDS011;920;48.944;9.148;2024-01-07T13:15:42;8.97;;;7.37;;
1839;SDS011;920;48.944;9.148;2024-01-07T13:18:10;10.73;;;7.93;;
1839;SDS011;920;48.944;9.148;2024-01-07T13:20:37;12.00;;;8.60;;
1839;SDS011;920;48.944;9.148;2024-01-07T13:23:04;11.33;;;8.80;;
1839;SDS011;920;48.944;9.148;2024-01-07T13:25:31;9.83;;;7.83;;
1839;SDS011;920;48.944;9.148;2024-01-07T13:27:58;10.40;;;8.10;;
1839;SDS011;920;48.944;9.148;2024-01-07T13:30:25;10.60;;;8.07;;
1839;SDS011;920;48.944;9.148;2024-01-07T13:32:53;12.00;;;8.50;;
1839;SDS011;920;48.944;9.148;2024-01-07T13:35:22;10.60;;;8.40;;
1839;SDS011;920;48.944;9.148;2024-01-07T13:37:49;11.10;;;8.80;;
1839;SDS011;920;48.944;9.148;2024-01-07T13:40:17;10.47;;;7.63;;
1839;SDS011;920;48.944;9.148;2024-01-07T13:42:44;10.07;;;7.87;;
1839;SDS011;920;48.944;9.148;2024-01-07T13:45:11;10.60;;;8.80;;
1839;SDS011;920;48.944;9.148;2024-01-07T13:47:38;12.00;;;8.37;;
1839;SDS011;920;48.944;9.148;2024-01-07T13:50:07;11.87;;;8.20;;
1839;SDS011;920;48.944;9.148;2024-01-07T13:52:35;10.60;;;8.03;;
1839;SDS011;920;48.944;9.148;2024-01-07T13:55:02;11.37;;;8.00;;
1839;SDS011;920;48.944;9.148;2024-01-07T13:57:29;10.37;;;7.70;;
1839;SDS011;920;48.944;9.148;2024-01-07T13:59:56;11.20;;;7.87;;
1839;SDS011;920;48.944;9.148;2024-01-07T14:02:23;10.90;;;8.10;;
1839;SDS011;920;48.944;9.148;2024-01-07T14:04:50;10.73;;;7.43;;
1839;SDS011;920;48.944;9.148;2024-01-07T14:07:19;9.90;;;7.47;;
1839;SDS011;920;48.944;9.148;2024-01-07T14:09:47;9.90;;;7.40;;
1839;SDS011;920;48.944;9.148;2024-01-07T14:12:13;10.27;;;7.17;;
1839;SDS011;920;48.944;9.148;2024-01-07T14:14:41;11.40;;;7.83;;
1839;SDS011;920;48.944;9.148;2024-01-07T14:17:07;13.23;;;7.50;;
1839;SDS011;920;48.944;9.148;2024-01-07T14:19:34;9.47;;;6.93;;
1839;SDS011;920;48.944;9.148;2024-01-07T14:22:01;10.10;;;7.63;;
1839;SDS011;920;48.944;9.148;2024-01-07T14:24:29;10.53;;;7.60;;
1839;SDS011;920;48.944;9.148;2024-01-07T14:26:56;11.93;;;8.63;;
1839;SDS011;920;48.944;9.148;2024-01-07T14:29:23;9.73;;;7.23;;
1839;SDS011;920;48.944;9.148;2024-01-07T14:31:50;11.33;;;7.93;;
1839;SDS011;920;48.944;9.148;2024-01-07T14:34:17;10.57;;;7.90;;
1839;SDS011;920;48.944;9.148;2024-01-07T14:36:45;10.67;;;8.53;;
1839;SDS011;920;48.944;9.148;2024-01-07T14:39:12;11.57;;;8.10;;
1839;SDS011;920;48.944;9.148;2024-01-07T14:41:41;9.30;;;7.43;;
1839;SDS011;920;48.944;9.148;2024-01-07T14:44:08;9.40;;;6.83;;
1839;SDS011;920;48.944;9.148;2024-01-07T14:46:35;9.60;;;6.70;;
1839;SDS011;920;48.944;9.148;2024-01-07T14:49:02;9.97;;;8.07;;
1839;SDS011;920;48.944;9.148;2024-01-07T14:51:29;8.80;;;6.70;;
1839;SDS011;920;48.944;9.148;2024-01-07T14:53:56;10.60;;;7.17;;
1839;SDS011;920;48.944;9.148;2024-01-07T14:56:23;9.43;;;7.10;;
1839;SDS011;920;48.944;9.148;2024-01-07T14:58:51;9.20;;;6.60;;
1839;SDS011;920;48.944;9.148;2024-01-07T15:01:18;8.67;;;6.10;;
1839;SDS011;920;48.944;9.148;2024-01-07T15:03:45;8.90;;;6.37;;
1839;SDS011;920;48.944;9.148;2024-01-07T15:06:11;11.20;;;7.47;;
1839;SDS011;920;48.944;9.148;2024-01-07T15:08:40;8.57;;;6.50;;
1839;SDS011;920;48.944;9.148;2024-01-07T15:11:07;9.07;;;6.83;;
1839;SDS011;920;48.944;9.148;2024-01-07T15:13:33;10.87;;;6.67;;
1839;SDS011;920;48.944;9.148;2024-01-07T15:16:01;9.83;;;6.20;;
1839;SDS011;920;48.944;9.148;2024-01-07T15:18:28;9.00;;;6.07;;
1839;SDS011;920;48.944;9.148;2024-01-07T15:20:55;9.10;;;6.67;;
1839;SDS011;920;48.944;9.148;2024-01-07T15:23:22;10.70;;;7.13;;
1839;SDS011;920;48.944;9.148;2024-01-07T15:25:48;11.13;;;7.50;;